createdAt,value
2022-08-09T00:00:32.290Z,99300.72
2022-08-09T00:02:35.575Z,99300.03
2022-08-09T00:04:37.556Z,99295.22
2022-08-09T00:06:40.056Z,99298.47
2022-08-09T00:08:48.577Z,99299.72
2022-08-09T00:10:51.582Z,99293.75
2022-08-09T00:12:53.437Z,99291.94
2022-08-09T00:14:56.973Z,99291.53
2022-08-09T00:16:58.734Z,99299.16
2022-08-09T00:19:01.448Z,99294.88
2022-08-09T00:21:07.953Z,99300.88
2022-08-09T00:23:56.330Z,99301.31
2022-08-09T00:25:33.044Z,99297.66
2022-08-09T00:27:36.260Z,99294.16
2022-08-09T00:30:16.589Z,99295.41
2022-08-09T00:32:06.318Z,99301.41
2022-08-09T00:34:07.927Z,99303.47
2022-08-09T00:36:09.605Z,99298.31
2022-08-09T00:38:12.627Z,99303.16
2022-08-09T00:40:17.476Z,99305.22
2022-08-09T00:44:13.884Z,99305.31
2022-08-09T00:44:46.893Z,99311.59
2022-08-09T00:46:57.445Z,99301.75
2022-08-09T00:49:06.231Z,99304.91
2022-08-09T00:51:11.798Z,99305.84
2022-08-09T00:53:15.076Z,99305.13
2022-08-09T00:56:03.766Z,99308.84
2022-08-09T00:57:38.560Z,99295.66
2022-08-09T00:59:46.452Z,99306.56
2022-08-09T01:01:51.963Z,99301.41
2022-08-09T01:04:08.769Z,99299.81
2022-08-09T01:06:54.405Z,99313.28
2022-08-09T01:09:09.660Z,99309.75
2022-08-09T01:11:15.805Z,99311.19
2022-08-09T01:13:23.836Z,99312.13
2022-08-09T01:15:41.088Z,99312.53
2022-08-09T01:18:07.088Z,99313.22
2022-08-09T01:20:17.630Z,99306.63
2022-08-09T01:22:51.970Z,99313.06
2022-08-09T01:25:02.801Z,99315.94
2022-08-09T01:27:13.255Z,99314.06
2022-08-09T01:29:17.395Z,99312.22
2022-08-09T01:32:28.219Z,99307.59
2022-08-09T01:33:47.703Z,99311.28
2022-08-09T01:35:53.560Z,99309.09
2022-08-09T01:38:09.577Z,99311.94
2022-08-09T01:40:23.197Z,99316.97
2022-08-09T01:42:33.586Z,99317.81
2022-08-09T01:44:41.207Z,99327.88
2022-08-09T01:46:47.035Z,99324.88
2022-08-09T01:48:52.133Z,99321.88
2022-08-09T01:50:55.547Z,99324.16
2022-08-09T01:53:01.771Z,99324.22
2022-08-09T01:55:23.463Z,99335.38
2022-08-09T01:57:45.747Z,99334.31
2022-08-09T01:59:52.652Z,99328.84
2022-08-09T02:01:59.539Z,99326.13
2022-08-09T02:04:03.975Z,99327.88
2022-08-09T02:06:10.972Z,99333.16
2022-08-09T02:08:38.751Z,99328.53
2022-08-09T02:10:51.435Z,99334.41
2022-08-09T02:12:56.140Z,99338.91
2022-08-09T02:15:02.144Z,99333.94
2022-08-09T02:17:30.823Z,99343.97
2022-08-09T02:19:34.834Z,99338.50
2022-08-09T02:21:46.647Z,99347.41
2022-08-09T02:23:54.639Z,99344.66
2022-08-09T02:25:59.187Z,99351.09
2022-08-09T02:28:09.709Z,99346.13
2022-08-09T02:30:12.440Z,99348.66
2022-08-09T02:32:21.371Z,99344.00
2022-08-09T02:34:40.469Z,99352.88
2022-08-09T02:36:49.137Z,99349.38
2022-08-09T02:38:56.872Z,99353.81
2022-08-09T02:41:11.228Z,99355.81
2022-08-09T02:43:13.330Z,99353.66
2022-08-09T02:45:30.474Z,99349.81
2022-08-09T02:47:57.156Z,99350.38
2022-08-09T02:50:03.253Z,99359.03
2022-08-09T02:52:07.864Z,99357.97
2022-08-09T02:54:14.268Z,99359.38
2022-08-09T02:56:17.516Z,99357.19
2022-08-09T02:58:32.744Z,99348.38
2022-08-09T03:00:57.751Z,99351.19
2022-08-09T03:03:00.943Z,99350.09
2022-08-09T03:05:05.975Z,99343.50
2022-08-09T03:07:13.893Z,99345.16
2022-08-09T03:09:17.935Z,99352.41
2022-08-09T03:11:29.584Z,99351.31
2022-08-09T03:14:01.200Z,99343.03
2022-08-09T03:16:07.104Z,99345.84
2022-08-09T03:18:11.030Z,99351.97
2022-08-09T03:20:14.356Z,99350.59
2022-08-09T03:22:19.767Z,99353.94
2022-08-09T03:24:42.379Z,99352.84
2022-08-09T03:26:50.717Z,99352.59
2022-08-09T03:28:59.122Z,99347.66
2022-08-09T03:31:04.474Z,99354.56
2022-08-09T03:33:19.191Z,99363.16
2022-08-09T03:35:24.801Z,99351.00
2022-08-09T03:37:55.857Z,99362.63
2022-08-09T03:40:00.254Z,99363.22
2022-08-09T03:42:06.371Z,99367.09
2022-08-09T03:44:09.213Z,99367.66
2022-08-09T03:46:20.599Z,99367.13
2022-08-09T03:48:33.889Z,99359.41
2022-08-09T03:50:40.632Z,99365.47
2022-08-09T03:52:46.009Z,99368.53
2022-08-09T03:54:51.053Z,99369.94
2022-08-09T03:56:54.505Z,99363.03
2022-08-09T03:58:59.506Z,99365.28
2022-08-09T04:01:01.777Z,99365.00
2022-08-09T04:03:05.603Z,99366.13
2022-08-09T04:05:18.205Z,99367.22
2022-08-09T04:07:47.858Z,99361.44
2022-08-09T04:09:52.979Z,99364.50
2022-08-09T04:12:11.885Z,99372.50
2022-08-09T04:14:53.916Z,99371.72
2022-08-09T04:16:35.699Z,99374.19
2022-08-09T04:18:37.427Z,99376.97
2022-08-09T04:20:39.400Z,99374.50
2022-08-09T04:22:44.210Z,99383.88
2022-08-09T04:24:46.381Z,99382.19
2022-08-09T04:26:48.260Z,99381.41
2022-08-09T04:28:50.771Z,99390.78
2022-08-09T04:30:52.455Z,99389.13
2022-08-09T04:32:54.332Z,99391.06
2022-08-09T04:34:57.746Z,99393.25
2022-08-09T04:37:00.475Z,99401.53
2022-08-09T04:39:05.000Z,99403.19
2022-08-09T04:41:06.741Z,99404.28
2022-08-09T04:43:15.149Z,99409.53
2022-08-09T04:45:20.536Z,99405.94
2022-08-09T04:47:23.475Z,99410.41
2022-08-09T04:49:40.851Z,99413.72
2022-08-09T04:51:47.622Z,99420.06
2022-08-09T04:53:54.166Z,99421.69
2022-08-09T04:56:00.560Z,99412.31
2022-08-09T04:58:09.451Z,99423.91
2022-08-09T05:00:12.157Z,99421.97
2022-08-09T05:02:14.136Z,99420.03
2022-08-09T05:04:16.997Z,99424.19
2022-08-09T05:06:27.334Z,99427.47
2022-08-09T05:08:30.234Z,99425.25
2022-08-09T05:10:32.843Z,99430.47
2022-08-09T05:12:35.029Z,99428.28
2022-08-09T05:14:37.781Z,99435.19
2022-08-09T05:16:58.367Z,99435.72
2022-08-09T05:19:01.082Z,99439.03
2022-08-09T05:21:09.861Z,99444.81
2022-08-09T05:23:55.731Z,99443.44
2022-08-09T05:25:42.398Z,99442.03
2022-08-09T05:27:48.051Z,99441.44
2022-08-09T05:29:49.658Z,99448.06
2022-08-09T05:31:58.407Z,99438.09
2022-08-09T05:34:00.360Z,99437.25
2022-08-09T05:36:04.063Z,99438.59
2022-08-09T05:38:08.714Z,99444.66
2022-08-09T05:40:11.149Z,99447.91
2022-08-09T05:42:17.330Z,99446.75
2022-08-09T05:44:29.131Z,99446.16
2022-08-09T05:46:34.159Z,99451.13
2022-08-09T05:48:38.825Z,99452.47
2022-08-09T05:50:50.908Z,99454.63
2022-08-09T05:53:05.686Z,99456.22
2022-08-09T05:55:18.086Z,99461.38
2022-08-09T05:57:25.014Z,99454.63
2022-08-09T05:59:44.139Z,99453.69
2022-08-09T06:01:47.102Z,99465.19
2022-08-09T06:03:54.745Z,99463.41
2022-08-09T06:06:05.824Z,99466.31
2022-08-09T06:08:09.152Z,99463.69
2022-08-09T06:10:15.859Z,99465.97
2022-08-09T06:12:19.824Z,99464.69
2022-08-09T06:14:21.546Z,99467.50
2022-08-09T06:16:23.480Z,99465.88
2022-08-09T06:18:26.017Z,99476.16
2022-08-09T06:20:28.791Z,99476.69
2022-08-09T06:22:32.249Z,99478.31
2022-08-09T06:24:34.129Z,99475.22
2022-08-09T06:26:43.650Z,99475.72
2022-08-09T06:28:47.166Z,99474.72
2022-08-09T06:30:48.974Z,99479.94
2022-08-09T06:33:13.303Z,99478.69
2022-08-09T06:35:15.083Z,99477.97
2022-08-09T06:37:16.743Z,99483.63
2022-08-09T06:39:19.859Z,99474.50
2022-08-09T06:41:22.184Z,99475.69
2022-08-09T06:43:26.515Z,99482.59
2022-08-09T06:46:07.214Z,99481.47
2022-08-09T06:47:57.917Z,99473.91
2022-08-09T06:50:14.221Z,99475.00
2022-08-09T06:52:18.463Z,99467.44
2022-08-09T06:54:26.313Z,99482.75
2022-08-09T06:56:31.051Z,99475.72
2022-08-09T07:00:46.912Z,99478.25
2022-08-09T07:00:58.476Z,99474.50
2022-08-09T07:03:02.132Z,99469.41
2022-08-09T07:05:08.180Z,99479.44
2022-08-09T07:07:12.059Z,99477.47
2022-08-09T07:09:55.277Z,99473.13
2022-08-09T07:11:53.752Z,99467.13
2022-08-09T07:14:05.418Z,99473.03
2022-08-09T07:16:42.390Z,99485.31
2022-08-09T07:18:31.326Z,99481.97
2022-08-09T07:20:33.629Z,99472.50
2022-08-09T07:22:49.590Z,99476.22
2022-08-09T07:24:54.540Z,99487.53
2022-08-09T07:26:56.427Z,99482.81
2022-08-09T07:29:09.141Z,99488.03
2022-08-09T07:31:14.001Z,99482.84
2022-08-09T07:33:17.588Z,99480.44
2022-08-09T07:35:19.376Z,99481.69
2022-08-09T07:37:22.045Z,99484.06
2022-08-09T07:39:40.442Z,99482.47
2022-08-09T07:41:43.747Z,99480.06
2022-08-09T07:43:50.117Z,99484.06
2022-08-09T07:46:02.022Z,99484.44
2022-08-09T07:48:05.650Z,99477.25
2022-08-09T07:50:08.701Z,99473.63
2022-08-09T07:52:17.051Z,99475.97
2022-08-09T07:54:28.305Z,99476.81
2022-08-09T07:56:33.880Z,99467.22
2022-08-09T07:58:35.582Z,99479.31
2022-08-09T08:00:55.551Z,99474.13
2022-08-09T08:02:59.059Z,99475.75
2022-08-09T08:05:03.018Z,99474.91
2022-08-09T08:08:44.626Z,99466.94
2022-08-09T08:09:51.836Z,99473.47
2022-08-09T08:12:09.324Z,99466.63
2022-08-09T08:14:18.509Z,99468.66
2022-08-09T08:16:31.365Z,99461.00
2022-08-09T08:18:33.881Z,99466.19
2022-08-09T08:20:39.038Z,99471.38
2022-08-09T08:22:44.798Z,99464.13
2022-08-09T08:24:55.603Z,99471.34
2022-08-09T08:26:59.369Z,99471.69
2022-08-09T08:29:00.901Z,99467.13
2022-08-09T08:31:14.221Z,99469.84
2022-08-09T08:33:23.883Z,99465.72
2022-08-09T08:35:32.046Z,99467.28
2022-08-09T08:37:59.869Z,99470.78
2022-08-09T08:40:07.470Z,99467.81
2022-08-09T08:42:09.340Z,99469.25
2022-08-09T08:44:13.868Z,99463.47
2022-08-09T08:46:32.296Z,99473.00
2022-08-09T08:48:37.249Z,99479.69
2022-08-09T08:50:39.632Z,99473.03
2022-08-09T08:52:59.387Z,99465.97
2022-08-09T08:55:03.902Z,99456.91
2022-08-09T08:57:11.673Z,99465.22
2022-08-09T08:59:19.965Z,99460.94
2022-08-09T09:01:24.971Z,99461.94
2022-08-09T09:03:38.439Z,99461.78
2022-08-09T09:06:00.756Z,99467.16
2022-08-09T09:08:02.922Z,99454.03
2022-08-09T09:10:09.369Z,99456.22
2022-08-09T09:12:16.718Z,99449.47
2022-08-09T09:14:30.568Z,99451.19
2022-08-09T09:16:34.446Z,99455.41
2022-08-09T09:18:36.772Z,99458.78
2022-08-09T09:20:38.834Z,99446.78
2022-08-09T09:22:54.410Z,99447.69
2022-08-09T09:26:02.559Z,99453.03
2022-08-09T09:28:05.246Z,99453.16
2022-08-09T09:30:14.090Z,99446.03
2022-08-09T09:32:15.725Z,99448.56
2022-08-09T09:34:18.332Z,99451.09
2022-08-09T09:36:21.269Z,99436.63
2022-08-09T09:38:39.028Z,99455.75
2022-08-09T09:40:46.285Z,99452.19
2022-08-09T09:42:57.520Z,99446.63
2022-08-09T09:45:03.164Z,99441.41
2022-08-09T09:47:13.324Z,99439.03
2022-08-09T09:49:32.289Z,99442.75
2022-08-09T09:51:42.376Z,99443.63
2022-08-09T09:54:19.051Z,99439.66
2022-08-09T09:56:33.678Z,99442.91
2022-08-09T09:58:49.203Z,99445.81
2022-08-09T10:00:59.034Z,99432.56
2022-08-09T10:03:11.916Z,99435.81
2022-08-09T10:05:15.846Z,99434.66
2022-08-09T10:07:30.009Z,99431.50
2022-08-09T10:09:49.056Z,99439.63
2022-08-09T10:12:11.780Z,99434.44
2022-08-09T10:14:32.957Z,99434.94
2022-08-09T10:16:57.703Z,99427.69
2022-08-09T10:19:03.317Z,99428.16
2022-08-09T10:21:10.185Z,99431.44
2022-08-09T10:23:22.168Z,99433.06
2022-08-09T10:25:24.565Z,99442.03
2022-08-09T10:27:38.934Z,99427.91
2022-08-09T10:30:43.909Z,99434.41
2022-08-09T10:32:50.392Z,99418.63
2022-08-09T10:34:46.106Z,99414.56
2022-08-09T10:36:56.799Z,99421.50
2022-08-09T10:39:00.253Z,99423.13
2022-08-09T10:41:02.530Z,99416.63
2022-08-09T10:43:05.784Z,99419.09
2022-08-09T10:45:16.803Z,99412.63
2022-08-09T10:48:13.471Z,99400.84
2022-08-09T10:50:30.792Z,99415.47
2022-08-09T10:53:00.924Z,99407.78
2022-08-09T10:55:19.740Z,99420.38
2022-08-09T10:57:23.571Z,99411.03
2022-08-09T10:59:31.248Z,99413.06
2022-08-09T11:03:11.778Z,99411.47
2022-08-09T11:04:20.146Z,99402.09
2022-08-09T11:06:34.161Z,99403.75
2022-08-09T11:08:47.002Z,99391.97
2022-08-09T11:10:54.751Z,99391.56
2022-08-09T11:13:49.349Z,99394.00
2022-08-09T11:15:50.932Z,99398.84
2022-08-09T11:18:04.198Z,99395.59
2022-08-09T11:20:19.817Z,99389.47
2022-08-09T11:22:43.306Z,99398.03
2022-08-09T11:25:03.685Z,99384.59
2022-08-09T11:28:02.792Z,99403.31
2022-08-09T11:30:32.509Z,99400.03
2022-08-09T11:32:39.946Z,99382.16
2022-08-09T11:34:45.332Z,99391.91
2022-08-09T11:36:51.843Z,99388.19
2022-08-09T11:39:02.310Z,99385.34
2022-08-09T11:41:15.962Z,99390.63
2022-08-09T11:43:34.996Z,99391.84
2022-08-09T11:45:43.456Z,99392.22
2022-08-09T11:47:46.605Z,99383.25
2022-08-09T11:50:54.250Z,99377.16
2022-08-09T11:52:56.408Z,99379.63
2022-08-09T11:55:51.698Z,99381.59
2022-08-09T11:58:02.313Z,99379.16
2022-08-09T12:00:16.019Z,99375.47
2022-08-09T12:02:37.100Z,99372.63
2022-08-09T12:04:40.829Z,99365.69
2022-08-09T12:06:55.518Z,99368.13
2022-08-09T12:08:58.032Z,99363.63
2022-08-09T12:11:03.679Z,99357.06
2022-08-09T12:14:08.447Z,99360.75
2022-08-09T12:15:49.831Z,99353.84
2022-08-09T12:17:53.570Z,99363.97
2022-08-09T12:19:59.579Z,99357.88
2022-08-09T12:22:06.036Z,99372.53
2022-08-09T12:24:10.224Z,99362.75
2022-08-09T12:26:12.967Z,99370.06
2022-08-09T12:28:59.533Z,99362.34
2022-08-09T12:30:50.578Z,99361.13
2022-08-09T12:33:02.050Z,99362.34
2022-08-09T12:35:10.842Z,99363.97
2022-08-09T12:37:23.941Z,99366.38
2022-08-09T12:39:30.936Z,99360.69
2022-08-09T12:41:40.331Z,99356.19
2022-08-09T12:44:05.313Z,99358.28
2022-08-09T12:46:04.764Z,99361.13
2022-08-09T12:48:20.257Z,99355.00
2022-08-09T12:50:34.439Z,99340.75
2022-08-09T12:52:42.845Z,99363.09
2022-08-09T12:56:12.333Z,99359.84
2022-08-09T12:57:43.109Z,99356.63
2022-08-09T13:00:03.005Z,99346.44
2022-08-09T13:02:07.238Z,99350.88
2022-08-09T13:04:37.249Z,99342.34
2022-08-09T13:06:43.509Z,99340.31
2022-08-09T13:08:58.595Z,99334.16
2022-08-09T13:11:23.393Z,99326.44
2022-08-09T13:13:37.941Z,99325.63
2022-08-09T13:16:06.359Z,99324.41
2022-08-09T13:18:09.503Z,99327.25
2022-08-09T13:20:18.819Z,99330.97
2022-08-09T13:22:35.261Z,99327.28
2022-08-09T13:24:54.295Z,99325.69
2022-08-09T13:26:57.994Z,99326.56
2022-08-09T13:29:10.092Z,99318.06
2022-08-09T13:32:14.295Z,99314.00
2022-08-09T13:33:52.654Z,99310.41
2022-08-09T13:36:37.645Z,99315.28
2022-08-09T13:38:56.224Z,99317.75
2022-08-09T13:41:51.903Z,99319.38
2022-08-09T13:43:04.994Z,99320.22
2022-08-09T13:45:12.467Z,99308.00
2022-08-09T13:47:43.609Z,99320.22
2022-08-09T13:49:57.663Z,99315.78
2022-08-09T13:52:01.542Z,99312.97
2022-08-09T13:54:03.305Z,99309.75
2022-08-09T13:56:05.404Z,99322.75
2022-08-09T13:58:11.457Z,99311.38
2022-08-09T14:00:15.972Z,99313.84
2022-08-09T14:02:25.824Z,99313.44
2022-08-09T14:04:27.984Z,99301.69
2022-08-09T14:06:31.736Z,99307.38
2022-08-09T14:08:36.948Z,99302.06
2022-08-09T14:10:49.430Z,99309.41
2022-08-09T14:12:53.714Z,99304.94
2022-08-09T14:14:56.521Z,99300.47
2022-08-09T14:16:58.768Z,99304.94
2022-08-09T14:19:00.743Z,99300.06
2022-08-09T14:21:03.286Z,99298.47
2022-08-09T14:23:07.891Z,99300.09
2022-08-09T14:25:10.001Z,99304.16
2022-08-09T14:27:19.875Z,99308.63
2022-08-09T14:29:46.394Z,99304.22
2022-08-09T14:31:52.046Z,99299.75
2022-08-09T14:33:55.819Z,99311.94
2022-08-09T14:35:57.534Z,99300.16
2022-08-09T14:38:19.832Z,99300.56
2022-08-09T14:40:39.842Z,99293.69
2022-08-09T14:42:43.890Z,99295.72
2022-08-09T14:45:00.115Z,99288.81
2022-08-09T14:47:26.188Z,99292.88
2022-08-09T14:49:25.772Z,99299.38
2022-08-09T14:51:28.428Z,99296.91
2022-08-09T14:53:32.069Z,99303.81
2022-08-09T14:55:42.274Z,99298.13
2022-08-09T14:57:49.847Z,99284.72
2022-08-09T14:59:51.446Z,99291.22
2022-08-09T15:01:53.242Z,99291.22
2022-08-09T15:03:55.568Z,99294.44
2022-08-09T15:06:01.587Z,99287.50
2022-08-09T15:08:10.375Z,99288.72
2022-08-09T15:10:14.028Z,99278.16
2022-08-09T15:12:15.956Z,99275.69
2022-08-09T15:14:19.235Z,99280.94
2022-08-09T15:16:21.372Z,99284.59
2022-08-09T15:18:22.997Z,99284.97
2022-08-09T15:21:55.132Z,99279.28
2022-08-09T15:22:47.980Z,99278.84
2022-08-09T15:25:03.672Z,99281.66
2022-08-09T15:27:05.730Z,99281.22
2022-08-09T15:29:08.265Z,99272.28
2022-08-09T15:31:41.430Z,99276.72
2022-08-09T15:34:32.869Z,99265.72
2022-08-09T15:36:06.354Z,99266.50
2022-08-09T15:38:11.548Z,99275.41
2022-08-09T15:40:19.960Z,99268.84
2022-08-09T15:42:22.169Z,99269.63
2022-08-09T15:44:23.937Z,99268.00
2022-08-09T15:46:32.009Z,99264.75
2022-08-09T15:48:37.638Z,99265.53
2022-08-09T15:50:43.648Z,99261.88
2022-08-09T15:52:55.126Z,99269.16
2022-08-09T15:55:11.402Z,99269.13
2022-08-09T15:57:13.841Z,99267.47
2022-08-09T15:59:15.456Z,99266.22
2022-08-09T16:01:17.465Z,99266.16
2022-08-09T16:03:29.382Z,99271.00
2022-08-09T16:05:53.553Z,99265.22
2022-08-09T16:07:56.979Z,99269.66
2022-08-09T16:10:04.732Z,99261.91
2022-08-09T16:12:07.685Z,99269.53
2022-08-09T16:14:13.755Z,99269.88
2022-08-09T16:16:18.367Z,99269.81
2022-08-09T16:18:20.730Z,99255.63
2022-08-09T16:20:30.277Z,99260.44
2022-08-09T16:22:33.726Z,99251.81
2022-08-09T16:24:35.613Z,99263.13
2022-08-09T16:26:37.666Z,99251.75
2022-08-09T16:28:39.289Z,99247.69
2022-08-09T16:30:44.485Z,99248.41
2022-08-09T16:33:05.383Z,99251.59
2022-08-09T16:35:07.483Z,99252.75
2022-08-09T16:37:13.001Z,99250.69
2022-08-09T16:39:16.425Z,99246.16
2022-08-09T16:41:24.703Z,99251.72
2022-08-09T16:43:41.502Z,99244.41
2022-08-09T16:45:46.533Z,99249.19
2022-08-09T16:48:38.243Z,99255.22
2022-08-09T16:50:31.253Z,99250.75
2022-08-09T16:52:35.398Z,99254.34
2022-08-09T16:54:37.160Z,99248.63
2022-08-09T16:56:49.531Z,99246.97
2022-08-09T16:58:52.120Z,99246.94
2022-08-09T17:00:55.029Z,99247.28
2022-08-09T17:02:57.495Z,99239.16
2022-08-09T17:04:59.616Z,99242.75
2022-08-09T17:08:41.211Z,99245.53
2022-08-09T17:09:45.457Z,99250.78
2022-08-09T17:11:44.556Z,99255.50
2022-08-09T17:14:01.754Z,99250.63
2022-08-09T17:16:04.433Z,99257.06
2022-08-09T17:18:07.869Z,99248.13
2022-08-09T17:20:30.241Z,99247.28
2022-08-09T17:22:36.395Z,99252.09
2022-08-09T17:24:54.921Z,99263.31
2022-08-09T17:26:58.174Z,99251.16
2022-08-09T17:28:59.998Z,99253.53
2022-08-09T17:31:01.696Z,99254.31
2022-08-09T17:33:05.016Z,99260.34
2022-08-09T17:35:12.228Z,99260.31
2022-08-09T17:37:19.267Z,99262.25
2022-08-09T17:39:25.084Z,99262.19
2022-08-09T17:41:38.922Z,99261.31
2022-08-09T17:43:42.211Z,99263.63
2022-08-09T17:46:04.356Z,99266.00
2022-08-09T17:48:07.227Z,99267.16
2022-08-09T17:50:17.366Z,99270.72
2022-08-09T17:52:34.260Z,99267.88
2022-08-09T17:54:35.998Z,99262.97
2022-08-09T17:56:38.657Z,99274.56
2022-08-09T17:58:45.089Z,99276.50
2022-08-09T18:00:48.281Z,99279.28
2022-08-09T18:02:50.355Z,99274.41
2022-08-09T18:05:00.668Z,99277.16
2022-08-09T18:07:04.486Z,99279.91
2022-08-09T18:09:06.940Z,99275.84
2022-08-09T18:11:08.665Z,99286.22
2022-08-09T18:13:39.756Z,99278.91
2022-08-09T18:16:05.502Z,99282.00
2022-08-09T18:18:07.988Z,99282.31
2022-08-09T18:20:55.493Z,99281.44
2022-08-09T18:22:34.100Z,99275.28
2022-08-09T18:24:35.947Z,99282.84
2022-08-09T18:26:46.902Z,99286.44
2022-08-09T18:30:38.840Z,99284.38
2022-08-09T18:31:12.015Z,99284.69
2022-08-09T18:33:15.151Z,99286.97
2022-08-09T18:35:17.053Z,99287.72
2022-08-09T18:37:47.987Z,99289.66
2022-08-09T18:39:45.893Z,99284.69
2022-08-09T18:41:52.643Z,99290.59
2022-08-09T18:43:55.404Z,99290.53
2022-08-09T18:46:46.027Z,99292.00
2022-08-09T18:48:18.716Z,99300.31
2022-08-09T18:50:22.002Z,99305.84
2022-08-09T18:52:34.692Z,99308.19
2022-08-09T18:54:37.310Z,99315.28
2022-08-09T18:56:39.042Z,99317.22
2022-08-09T18:58:42.571Z,99320.31
2022-08-09T19:00:46.822Z,99326.59
2022-08-09T19:02:50.990Z,99323.69
2022-08-09T19:05:14.165Z,99330.75
2022-08-09T19:07:16.642Z,99326.59
2022-08-09T19:09:34.331Z,99334.50
2022-08-09T19:11:40.907Z,99341.94
2022-08-09T19:13:51.354Z,99345.03
2022-08-09T19:15:55.555Z,99332.06
2022-08-09T19:17:59.037Z,99346.41
2022-08-09T19:20:02.197Z,99346.63
2022-08-09T19:22:07.063Z,99354.84
2022-08-09T19:24:33.205Z,99355.09
2022-08-09T19:26:35.239Z,99350.81
2022-08-09T19:28:38.259Z,99358.38
2022-08-09T19:30:44.819Z,99359.47
2022-08-09T19:32:46.576Z,99356.53
2022-08-09T19:34:54.997Z,99357.97
2022-08-09T19:36:59.041Z,99360.25
2022-08-09T19:39:03.466Z,99357.69
2022-08-09T19:41:07.882Z,99357.97
2022-08-09T19:43:10.300Z,99365.84
2022-08-09T19:45:39.036Z,99360.78
2022-08-09T19:47:42.994Z,99366.19
2022-08-09T19:50:06.645Z,99367.28
2022-08-09T19:52:08.118Z,99371.50
2022-08-09T19:54:09.969Z,99373.75
2022-08-09T19:56:15.496Z,99384.06
2022-08-09T19:58:17.817Z,99378.72
2022-08-09T20:00:31.623Z,99388.53
2022-08-09T20:04:10.570Z,99387.63
2022-08-09T20:04:55.693Z,99388.59
2022-08-09T20:06:59.726Z,99388.00
2022-08-09T20:09:05.785Z,99383.41
2022-08-09T20:11:08.121Z,99386.47
2022-08-09T20:13:10.369Z,99393.16
2022-08-09T20:16:37.537Z,99394.56
2022-08-09T20:17:48.237Z,99389.53
2022-08-09T20:19:55.535Z,99390.13
2022-08-09T20:21:59.859Z,99395.16
2022-08-09T20:24:02.285Z,99394.22
2022-08-09T20:26:04.536Z,99390.84
2022-08-09T20:28:08.569Z,99385.09
2022-08-09T20:30:14.671Z,99399.00
2022-08-09T20:32:33.171Z,99396.75
2022-08-09T20:34:35.643Z,99397.00
2022-08-09T20:36:39.897Z,99404.34
2022-08-09T20:39:28.526Z,99407.00
2022-08-09T20:41:05.463Z,99398.34
2022-08-09T20:43:18.099Z,99398.56
2022-08-09T20:45:59.757Z,99401.16
2022-08-09T20:47:48.633Z,99402.97
2022-08-09T20:49:50.852Z,99402.06
2022-08-09T20:51:52.259Z,99395.00
2022-08-09T20:53:55.923Z,99405.97
2022-08-09T20:56:02.358Z,99404.53
2022-08-09T20:58:05.677Z,99404.75
2022-08-09T21:00:31.580Z,99406.13
2022-08-09T21:02:34.642Z,99402.72
2022-08-09T21:05:57.570Z,99402.09
2022-08-09T21:06:58.113Z,99417.50
2022-08-09T21:09:00.319Z,99417.34
2022-08-09T21:11:02.818Z,99416.72
2022-08-09T21:13:08.277Z,99407.38
2022-08-09T21:15:14.610Z,99416.81
2022-08-09T21:18:11.663Z,99424.59
2022-08-09T21:20:17.072Z,99420.69
2022-08-09T21:22:36.214Z,99428.13
2022-08-09T21:24:32.623Z,99428.66
2022-08-09T21:26:35.548Z,99426.06
2022-08-09T21:28:37.188Z,99420.31
2022-08-09T21:30:40.409Z,99432.53
2022-08-09T21:32:42.268Z,99431.09
2022-08-09T21:34:48.284Z,99438.84
2022-08-09T21:36:55.665Z,99433.09
2022-08-09T21:38:59.232Z,99436.91
2022-08-09T21:41:01.276Z,99439.56
2022-08-09T21:43:06.995Z,99434.66
2022-08-09T21:45:15.853Z,99438.78
2022-08-09T21:47:19.899Z,99438.47
2022-08-09T21:49:21.498Z,99443.09
2022-08-09T21:51:35.661Z,99436.53
2022-08-09T21:53:40.246Z,99437.84
2022-08-09T21:55:46.622Z,99441.66
2022-08-09T21:57:58.809Z,99437.09
2022-08-09T22:00:01.854Z,99438.75
2022-08-09T22:02:03.827Z,99445.84
2022-08-09T22:04:05.420Z,99440.41
2022-08-09T22:06:07.783Z,99435.84
2022-08-09T22:08:14.758Z,99432.38
2022-08-09T22:10:22.894Z,99442.09
2022-08-09T22:12:30.493Z,99447.06
2022-08-09T22:14:39.039Z,99455.91
2022-08-09T22:16:40.743Z,99457.72
2022-08-09T22:18:53.594Z,99449.53
2022-08-09T22:20:56.427Z,99450.50
2022-08-09T22:22:58.794Z,99458.72
2022-08-09T22:26:05.709Z,99465.31
2022-08-09T22:27:22.677Z,99465.28
2022-08-09T22:29:32.155Z,99467.91
2022-08-09T22:31:37.374Z,99460.03
2022-08-09T22:33:49.177Z,99473.50
2022-08-09T22:36:02.323Z,99465.13
2022-08-09T22:38:06.808Z,99467.78
2022-08-09T22:40:10.612Z,99461.50
2022-08-09T22:42:23.609Z,99464.75
2022-08-09T22:44:25.887Z,99456.22
2022-08-09T22:48:16.317Z,99458.34
2022-08-09T22:48:56.246Z,99455.50
2022-08-09T22:51:10.843Z,99466.53
2022-08-09T22:53:19.645Z,99456.66
2022-08-09T22:55:22.917Z,99458.47
2022-08-09T22:57:35.397Z,99449.06
2022-08-09T22:59:57.378Z,99453.19
2022-08-09T23:02:00.596Z,99459.72
2022-08-09T23:04:03.314Z,99450.34
2022-08-09T23:06:07.749Z,99452.47
2022-08-09T23:08:34.578Z,99452.59
2022-08-09T23:10:41.594Z,99445.50
2022-08-09T23:12:45.182Z,99443.38
2022-08-09T23:14:46.867Z,99440.38
2022-08-09T23:16:48.493Z,99448.59
2022-08-09T23:18:50.145Z,99449.88
2022-08-09T23:20:51.867Z,99448.88
2022-08-09T23:22:53.487Z,99454.59
2022-08-09T23:24:55.093Z,99450.78
2022-08-09T23:26:56.852Z,99456.50
2022-08-09T23:28:58.493Z,99449.59
2022-08-09T23:31:00.176Z,99448.91
2022-08-09T23:33:01.781Z,99450.34
2022-08-09T23:35:03.889Z,99447.41
2022-08-09T23:37:06.415Z,99443.94
2022-08-09T23:39:10.641Z,99442.94
2022-08-09T23:41:12.412Z,99443.38
2022-08-09T23:43:30.823Z,99447.06
2022-08-09T23:45:36.929Z,99441.31
2022-08-09T23:47:40.184Z,99435.56
2022-08-09T23:49:41.862Z,99445.69
2022-08-09T23:51:43.482Z,99444.19
2022-08-09T23:53:45.080Z,99447.59
2022-08-09T23:55:49.641Z,99440.19
2022-08-09T23:58:07.827Z,99444.72
